Time;durP1;ratioP1;P1;durP2;ratioP2;P2;SDS_P1;SDS_P2;PMS_P1;PMS_P2;Temp;Humidity;BMP_temperature;BMP_pressure;BME280_temperature;BME280_humidity;BME280_pressure;Samples;Min_cycle;Max_cycle;Signal;HPM_P1;HPM_P2
2022/08/15 00:01:25;;;;;;;13.25;11.85;;;;;;;25.06;59.39;100423.53;6130342;23;20013;-54
2022/08/15 00:03:54;;;;;;;15.38;11.30;;;;;;;25.04;59.46;100426.28;6132491;23;20286;-55
2022/08/15 00:06:25;;;;;;;13.70;11.48;;;;;;;25.02;59.56;100428.16;6137550;23;20009;-54
2022/08/15 00:08:54;;;;;;;13.88;11.70;;;;;;;25.17;59.05;100423.81;6131451;23;20375;-55
2022/08/15 00:11:31;;;;;;;14.90;12.68;;;;;;;24.93;60.06;100419.78;6112757;23;20015;-53
2022/08/15 00:14:06;;;;;;;17.60;12.68;;;;;;;25.10;59.19;100424.22;6138676;23;20076;-54
2022/08/15 00:16:36;;;;;;;17.80;13.20;;;;;;;25.07;59.35;100413.72;6136901;23;20067;-55
2022/08/15 00:19:15;;;;;;;15.07;12.98;;;;;;;24.82;61.00;100423.00;6118609;23;20083;-53
2022/08/15 00:21:48;;;;;;;15.88;12.20;;;;;;;24.95;60.49;100415.22;6143161;23;20025;-53
2022/08/15 00:24:22;;;;;;;13.88;11.60;;;;;;;25.06;59.31;100434.19;6111970;23;20103;-55
2022/08/15 00:26:51;;;;;;;14.77;12.20;;;;;;;25.08;59.08;100418.09;6129185;23;20016;-53
2022/08/15 00:29:18;;;;;;;13.25;10.73;;;;;;;25.22;58.98;100429.75;6098692;23;20283;-52
2022/08/15 00:31:53;;;;;;;12.73;10.63;;;;;;;25.40;57.96;100428.75;6128144;23;20019;-53
2022/08/15 00:34:25;;;;;;;14.95;12.20;;;;;;;25.35;58.85;100428.16;6139676;23;20067;-53
2022/08/15 00:36:50;;;;;;;14.30;11.82;;;;;;;25.39;58.34;100434.16;6143826;23;20348;-53
2022/08/15 00:39:20;;;;;;;13.60;11.15;;;;;;;25.34;58.93;100430.88;6120644;23;20009;-53
2022/08/15 00:41:48;;;;;;;13.25;11.38;;;;;;;25.36;59.15;100421.00;6126157;23;20015;-54
2022/08/15 00:44:22;;;;;;;12.57;10.88;;;;;;;25.40;58.58;100425.22;6143450;23;20019;-53
2022/08/15 00:46:52;;;;;;;12.77;10.95;;;;;;;25.43;58.18;100411.72;6130751;23;20333;-52
2022/08/15 00:49:18;;;;;;;13.80;11.10;;;;;;;25.41;58.60;100409.13;6138202;23;20005;-53
2022/08/15 00:51:54;;;;;;;14.75;11.10;;;;;;;25.22;59.79;100410.22;6135268;23;20092;-51
2022/08/15 00:54:38;;;;;;;12.98;11.18;;;;;;;25.25;59.11;100402.88;6132334;23;20009;-55
2022/08/15 00:57:23;;;;;;;;;;;;;;;25.11;59.66;100402.81;6140360;23;20012;-53
2022/08/15 01:00:09;;;;;;;14.73;11.80;;;;;;;24.77;61.30;100394.81;6136507;23;19947;-53
2022/08/15 01:02:36;;;;;;;12.88;11.18;;;;;;;24.81;60.94;100405.25;6084358;23;20020;-53
2022/08/15 01:05:10;;;;;;;12.23;10.93;;;;;;;24.97;60.15;100403.53;6143077;23;20452;-55
2022/08/15 01:07:36;;;;;;;13.48;11.38;;;;;;;24.90;60.41;100402.13;6129762;23;20086;-52
2022/08/15 01:10:03;;;;;;;13.23;11.30;;;;;;;24.89;61.42;100396.88;6106118;23;20492;-50
2022/08/15 01:12:30;;;;;;;13.52;11.82;;;;;;;24.83;61.06;100397.16;6135275;23;20012;-53
2022/08/15 01:15:15;;;;;;;14.15;11.60;;;;;;;24.79;61.43;100403.59;6141257;23;20060;-54
2022/08/15 01:17:41;;;;;;;13.38;11.05;;;;;;;24.87;61.25;100410.28;6110384;23;20780;-55
2022/08/15 01:20:12;;;;;;;12.50;11.10;;;;;;;24.93;60.88;100409.97;6144064;23;20009;-54
2022/08/15 01:23:12;;;;;;;16.20;11.32;;;;;;;24.95;61.31;100402.75;6141396;23;20091;-54
2022/08/15 01:25:42;;;;;;;12.52;11.23;;;;;;;25.04;60.90;100404.94;6134913;23;20016;-54
2022/08/15 01:28:31;;;;;;;14.35;11.27;;;;;;;25.09;60.71;100403.81;6111455;23;20099;-54
2022/08/15 01:31:10;;;;;;;13.52;11.25;;;;;;;25.19;60.29;100397.06;6136560;23;20009;-52
2022/08/15 01:33:49;;;;;;;14.55;11.35;;;;;;;25.32;59.59;100395.41;6133160;23;20059;-52
2022/08/15 01:36:16;;;;;;;14.07;11.75;;;;;;;25.39;58.98;100392.31;6110206;23;20087;-55
2022/08/15 01:38:47;;;;;;;13.07;11.27;;;;;;;25.51;58.21;100389.91;6110085;23;20340;-52
2022/08/15 01:41:37;;;;;;;15.52;12.55;;;;;;;25.49;57.99;100391.84;6119237;23;20005;-52
2022/08/15 01:44:16;;;;;;;14.95;11.60;;;;;;;25.54;57.65;100385.28;6137418;23;20013;-53
2022/08/15 01:47:00;;;;;;;14.57;11.75;;;;;;;25.49;58.12;100386.50;6133158;23;20362;-53
2022/08/15 01:49:34;;;;;;;13.67;11.53;;;;;;;25.59;57.33;100388.59;6096827;23;20253;-54
2022/08/15 01:52:03;;;;;;;14.80;11.70;;;;;;;25.65;56.74;100382.91;6133180;23;20579;-54
2022/08/15 01:54:45;;;;;;;13.05;11.43;;;;;;;25.62;56.09;100374.19;6109643;23;20005;-53
2022/08/15 01:57:12;;;;;;;19.15;11.98;;;;;;;25.63;55.62;100376.78;6131359;23;20512;-54
2022/08/15 01:59:38;;;;;;;13.02;11.63;;;;;;;25.48;56.46;100382.09;6107405;23;20005;-54
2022/08/15 02:02:07;;;;;;;16.70;11.40;;;;;;;25.48;55.61;100374.97;6140690;23;20017;-53
2022/08/15 02:04:38;;;;;;;13.75;9.80;;;;;;;25.55;55.25;100370.13;6132323;23;20282;-53
2022/08/15 02:07:17;;;;;;;12.75;10.65;;;;;;;25.53;55.19;100364.00;6148414;23;20433;-53
2022/08/15 02:09:42;;;;;;;12.32;10.60;;;;;;;25.23;55.02;100377.25;6137576;23;20059;-52
2022/08/15 02:12:10;;;;;;;14.02;10.15;;;;;;;25.23;55.54;100379.94;6119244;23;20107;-52
2022/08/15 02:14:39;;;;;;;14.93;9.90;;;;;;;25.24;55.78;100382.50;6133135;23;21177;-54
2022/08/15 02:17:05;;;;;;;12.45;9.80;;;;;;;25.26;55.05;100375.28;6138194;23;20009;-52
2022/08/15 02:19:30;;;;;;;12.57;9.63;;;;;;;25.30;55.95;100382.19;6134820;23;20001;-53
2022/08/15 02:21:56;;;;;;;12.05;8.63;;;;;;;25.38;54.68;100385.25;6138927;23;20044;-54
2022/08/15 02:24:27;;;;;;;10.65;8.75;;;;;;;25.46;54.59;100384.84;6109903;23;20024;-52
2022/08/15 02:26:54;;;;;;;17.08;9.25;;;;;;;25.46;54.03;100383.03;6139823;23;20089;-53
2022/08/15 02:29:25;;;;;;;11.73;8.70;;;;;;;25.55;53.15;100387.00;6097009;23;20449;-53
2022/08/15 02:31:53;;;;;;;10.55;8.40;;;;;;;25.63;52.44;100384.78;6141735;23;20075;-53
2022/08/15 02:34:19;;;;;;;14.82;8.60;;;;;;;25.71;52.07;100387.03;6132404;23;20036;-54
2022/08/15 02:36:45;;;;;;;13.02;9.02;;;;;;;25.74;51.74;100386.84;6145553;23;20425;-55
2022/08/15 02:39:11;;;;;;;13.60;8.95;;;;;;;25.74;51.67;100379.69;6110243;23;20021;-55
2022/08/15 02:41:48;;;;;;;11.38;8.68;;;;;;;25.84;51.33;100378.25;6109901;23;20945;-54
2022/08/15 02:44:15;;;;;;;11.57;8.80;;;;;;;25.79;51.86;100371.44;6138051;23;20005;-53
2022/08/15 02:46:41;;;;;;;14.32;8.90;;;;;;;25.80;52.27;100367.78;6138455;23;20020;-52
2022/08/15 02:49:10;;;;;;;11.13;9.30;;;;;;;25.72;53.11;100362.91;6134792;23;20009;-51
2022/08/15 02:51:37;;;;;;;12.90;8.90;;;;;;;25.71;53.05;100363.00;6123424;23;20528;-55
2022/08/15 02:54:05;;;;;;;13.75;8.88;;;;;;;25.66;52.79;100355.25;6109389;23;20452;-53
2022/08/15 02:56:33;;;;;;;11.15;8.68;;;;;;;25.57;52.93;100361.09;6109292;23;20020;-54
2022/08/15 02:58:58;;;;;;;11.90;8.07;;;;;;;25.60;52.27;100358.28;6103102;23;20019;-52
2022/08/15 03:01:28;;;;;;;13.20;8.60;;;;;;;25.55;52.89;100367.47;6132455;23;20585;-53
2022/08/15 03:03:56;;;;;;;11.07;8.38;;;;;;;25.53;52.24;100367.53;6108725;23;20535;-52
2022/08/15 03:06:32;;;;;;;10.32;8.10;;;;;;;25.49;52.44;100363.34;6113887;23;20532;-52
2022/08/15 03:09:00;;;;;;;11.82;8.32;;;;;;;25.51;52.76;100365.91;6123499;23;20016;-54
2022/08/15 03:11:27;;;;;;;11.57;7.75;;;;;;;25.50;53.05;100361.50;6127960;23;20029;-52
2022/08/15 03:13:53;;;;;;;13.40;8.73;;;;;;;25.53;53.24;100356.88;6104370;23;20009;-53
2022/08/15 03:16:19;;;;;;;13.85;8.35;;;;;;;25.52;53.75;100355.13;6132126;23;20033;-50
2022/08/15 03:18:55;;;;;;;11.77;8.32;;;;;;;25.49;52.94;100350.00;6129665;23;20308;-53
2022/08/15 03:21:20;;;;;;;10.77;7.88;;;;;;;25.51;52.64;100350.75;6104278;23;20609;-54
2022/08/15 03:23:50;;;;;;;10.88;7.80;;;;;;;25.53;52.68;100345.31;6137708;23;20004;-52
2022/08/15 03:26:19;;;;;;;13.23;7.68;;;;;;;25.44;53.34;100342.22;6144780;23;20013;-51
2022/08/15 03:29:00;;;;;;;11.32;7.70;;;;;;;25.37;53.47;100345.34;6138187;23;20940;-55
2022/08/15 03:31:26;;;;;;;12.40;7.80;;;;;;;25.19;53.96;100349.03;6087682;23;20483;-54
2022/08/15 03:33:51;;;;;;;12.73;8.13;;;;;;;24.80;55.60;100344.88;6106734;23;20016;-54
2022/08/15 03:36:19;;;;;;;14.52;8.50;;;;;;;24.73;54.51;100351.47;6142711;23;20033;-53
2022/08/15 03:38:47;;;;;;;18.23;8.13;;;;;;;24.79;55.14;100359.16;6145354;23;20008;-53
2022/08/15 03:41:14;;;;;;;11.43;7.90;;;;;;;24.97;53.95;100362.66;6127836;23;20032;-54
2022/08/15 03:43:41;;;;;;;12.40;7.57;;;;;;;25.14;52.60;100351.06;6135865;23;20012;-55
2022/08/15 03:46:09;;;;;;;12.60;7.85;;;;;;;25.29;52.25;100356.44;6139936;23;20033;-53
2022/08/15 03:48:40;;;;;;;14.95;7.70;;;;;;;25.00;54.35;100358.03;6134769;23;20096;-53
2022/08/15 03:51:08;;;;;;;10.88;8.02;;;;;;;25.11;52.50;100354.78;6138873;23;20012;-53
2022/08/15 03:53:47;;;;;;;11.75;8.27;;;;;;;25.07;53.86;100353.22;6107510;23;20360;-53
2022/08/15 03:56:16;;;;;;;9.10;7.25;;;;;;;25.21;53.02;100353.31;6134279;23;20017;-53
2022/08/15 03:58:46;;;;;;;8.98;7.25;;;;;;;25.24;53.12;100355.84;6106493;23;20526;-54
2022/08/15 04:01:17;;;;;;;12.77;6.80;;;;;;;25.31;52.89;100345.69;6105105;23;20092;-53
2022/08/15 04:03:44;;;;;;;10.23;7.05;;;;;;;25.37;52.97;100356.84;6110176;23;20026;-53
2022/08/15 04:06:12;;;;;;;13.95;7.40;;;;;;;25.35;52.76;100355.22;6103367;23;20083;-53
2022/08/15 04:08:38;;;;;;;9.48;6.80;;;;;;;25.44;51.99;100371.56;6109225;23;20006;-53
2022/08/15 04:11:07;;;;;;;9.52;7.47;;;;;;;25.32;51.65;100377.59;6096079;23;20484;-51
2022/08/15 04:13:35;;;;;;;12.77;7.32;;;;;;;25.45;50.72;100377.78;6110136;23;20089;-54
2022/08/15 04:16:02;;;;;;;11.88;9.13;;;;;;;25.25;52.88;100378.03;6109287;23;20018;-53
2022/08/15 04:18:29;;;;;;;13.68;9.45;;;;;;;25.32;52.83;100371.41;6108313;23;20017;-53
2022/08/15 04:20:57;;;;;;;10.45;8.10;;;;;;;25.39;52.50;100380.78;6107743;23;20425;-52
2022/08/15 04:23:32;;;;;;;11.45;8.57;;;;;;;25.35;53.29;100376.59;6101008;23;20024;-52
2022/08/15 04:25:58;;;;;;;13.25;9.02;;;;;;;25.22;54.81;100373.72;6104788;23;20012;-52
2022/08/15 04:28:29;;;;;;;14.18;8.52;;;;;;;25.03;56.21;100381.88;6107996;23;20430;-53
2022/08/15 04:30:55;;;;;;;11.77;8.18;;;;;;;25.15;55.42;100379.47;6111289;23;20801;-50
2022/08/15 04:33:24;;;;;;;13.00;8.98;;;;;;;25.10;56.13;100382.41;6094134;23;20032;-52
2022/08/15 04:35:59;;;;;;;13.07;8.98;;;;;;;24.97;56.22;100374.19;6112934;23;20013;-53
2022/08/15 04:38:25;;;;;;;11.90;8.05;;;;;;;24.90;56.18;100382.59;6102200;23;20612;-53
2022/08/15 04:40:53;;;;;;;12.88;8.32;;;;;;;24.69;55.99;100389.91;6128799;23;20001;-51
2022/08/15 04:43:20;;;;;;;11.93;7.47;;;;;;;24.75;55.56;100389.59;6100692;23;20404;-52
2022/08/15 04:45:45;;;;;;;9.90;7.47;;;;;;;24.90;54.87;100394.13;6096988;23;20513;-54
2022/08/15 04:48:15;;;;;;;9.93;7.45;;;;;;;24.99;54.44;100395.47;6100740;23;20056;-52
2022/08/15 04:50:45;;;;;;;14.60;7.93;;;;;;;25.00;54.72;100391.84;6109187;23;20036;-51
2022/08/15 04:53:12;;;;;;;8.68;6.45;;;;;;;24.97;54.94;100392.00;6094532;23;20480;-52
2022/08/15 04:55:41;;;;;;;14.20;7.03;;;;;;;24.94;54.59;100392.19;6112287;23;20076;-53
2022/08/15 04:58:09;;;;;;;13.57;7.78;;;;;;;24.79;54.56;100395.59;6095164;23;20018;-48
2022/08/15 05:00:37;;;;;;;11.05;6.38;;;;;;;24.92;54.40;100386.91;6107898;23;20060;-54
2022/08/15 05:03:08;;;;;;;10.05;6.07;;;;;;;24.93;54.54;100380.66;6126752;23;20075;-53
2022/08/15 05:05:38;;;;;;;10.98;6.38;;;;;;;24.82;54.65;100377.66;6129866;23;20394;-53
2022/08/15 05:08:04;;;;;;;8.95;5.50;;;;;;;24.89;54.12;100378.19;6120239;23;20047;-53
2022/08/15 05:10:29;;;;;;;9.55;5.57;;;;;;;24.96;52.79;100376.94;6123290;23;20568;-55
2022/08/15 05:12:55;;;;;;;5.95;4.80;;;;;;;24.98;52.60;100375.06;6112841;23;20001;-53
2022/08/15 05:15:22;;;;;;;9.00;5.15;;;;;;;24.95;52.27;100377.88;6096930;23;20466;-53
2022/08/15 05:17:49;;;;;;;10.93;5.20;;;;;;;24.93;51.69;100377.97;6140042;23;20005;-52
2022/08/15 05:20:17;;;;;;;10.68;4.97;;;;;;;24.82;51.41;100379.47;6139146;23;20085;-52
2022/08/15 05:23:01;;;;;;;7.50;4.72;;;;;;;24.91;51.28;100379.84;6129066;23;20005;-52
2022/08/15 05:25:34;;;;;;;11.50;4.90;;;;;;;25.06;50.19;100372.84;6131318;23;20252;-55
2022/08/15 05:28:29;;;;;;;7.25;4.65;;;;;;;25.16;49.91;100382.06;6130543;23;20071;-54
2022/08/15 05:31:09;;;;;;;9.02;4.45;;;;;;;25.16;50.11;100382.06;6128866;23;20092;-49
2022/08/15 05:33:36;;;;;;;8.38;5.00;;;;;;;25.06;50.11;100386.19;6107467;23;20008;-54
2022/08/15 05:36:10;;;;;;;8.43;4.80;;;;;;;25.04;51.39;100383.59;6135694;23;20255;-51
2022/08/15 05:38:49;;;;;;;11.25;4.80;;;;;;;25.11;51.28;100383.25;6133172;23;20036;-54
2022/08/15 05:41:39;;;;;;;7.93;4.57;;;;;;;25.09;52.12;100387.81;6123760;23;20465;-52
2022/08/15 05:44:19;;;;;;;6.45;4.40;;;;;;;25.18;51.58;100400.66;6141100;23;20433;-53
2022/08/15 05:47:04;;;;;;;7.60;4.50;;;;;;;25.07;50.63;100403.88;6136283;23;20594;-51
2022/08/15 05:49:47;;;;;;;8.48;4.25;;;;;;;25.27;48.39;100411.69;6134782;23;20073;-52
2022/08/15 05:52:38;;;;;;;7.45;4.40;;;;;;;25.36;48.00;100400.53;6139009;23;20008;-52
2022/08/15 05:55:08;;;;;;;7.70;4.60;;;;;;;25.42;48.31;100391.31;6140269;23;20679;-53
2022/08/15 05:57:57;;;;;;;8.40;4.22;;;;;;;25.51;47.30;100392.59;6110199;23;20009;-53
2022/08/15 06:00:25;;;;;;;5.70;4.13;;;;;;;25.68;46.78;100389.84;6105888;23;20013;-54
2022/08/15 06:03:03;;;;;;;6.03;3.90;;;;;;;25.95;45.86;100388.28;6136437;23;20094;-54
2022/08/15 06:05:35;;;;;;;6.50;4.13;;;;;;;25.93;45.64;100389.31;6116117;23;20080;-56
2022/08/15 06:08:14;;;;;;;7.97;4.10;;;;;;;26.12;45.32;100387.31;6134326;23;20024;-52
2022/08/15 06:11:02;;;;;;;9.55;4.30;;;;;;;26.09;46.45;100377.69;6108306;23;20024;-51
2022/08/15 06:13:37;;;;;;;10.25;4.13;;;;;;;26.04;45.87;100378.91;6095647;23;20016;-52
2022/08/15 06:16:12;;;;;;;6.55;3.88;;;;;;;26.10;46.36;100373.19;6137598;23;20044;-53
2022/08/15 06:18:38;;;;;;;7.45;4.50;;;;;;;25.91;46.86;100369.88;6105365;23;20495;-52
2022/08/15 06:21:14;;;;;;;11.82;4.25;;;;;;;26.01;46.97;100371.06;6100620;23;20021;-52
2022/08/15 06:24:17;;;;;;;7.50;4.10;;;;;;;26.03;47.73;100363.81;6133987;23;20088;-54
2022/08/15 06:27:00;;;;;;;8.93;4.35;;;;;;;26.03;47.05;100378.03;6130249;23;20900;-54
2022/08/15 06:29:51;;;;;;;7.68;4.32;;;;;;;26.08;46.82;100370.63;6103784;23;20005;-54
2022/08/15 06:32:36;;;;;;;7.22;4.63;;;;;;;26.02;47.41;100375.44;6126005;23;20020;-56
2022/08/15 06:35:39;;;;;;;7.72;4.25;;;;;;;26.17;46.98;100371.88;6139695;23;20469;-55
2022/08/15 06:38:44;;;;;;;8.40;4.28;;;;;;;26.14;46.27;100375.59;6105178;23;20005;-53
2022/08/15 06:41:18;;;;;;;;;;;;;;;26.16;47.01;100379.06;6099856;23;20090;-54
2022/08/15 06:43:45;;;;;;;7.32;4.57;;;;;;;26.16;46.37;100391.53;6093652;23;19919;-53
2022/08/15 06:46:10;;;;;;;7.25;4.72;;;;;;;26.31;45.83;100392.47;6118350;23;20012;-53
2022/08/15 06:48:39;;;;;;;8.45;4.25;;;;;;;26.47;45.33;100390.63;6136912;23;20009;-52
2022/08/15 06:51:12;;;;;;;7.35;4.80;;;;;;;26.51;45.38;100392.16;6136180;23;20501;-56
2022/08/15 06:53:46;;;;;;;10.45;4.55;;;;;;;26.67;45.07;100384.91;6127583;23;20092;-53
2022/08/15 06:56:17;;;;;;;9.02;4.80;;;;;;;26.60;45.90;100389.78;6129554;23;20432;-53
2022/08/15 06:59:32;;;;;;;9.48;4.68;;;;;;;26.65;45.74;100374.31;6133001;23;20087;-52
2022/08/15 07:02:47;;;;;;;11.35;4.40;;;;;;;26.68;45.71;100392.00;6094991;23;20040;-49
2022/08/15 07:05:41;;;;;;;9.30;4.68;;;;;;;26.47;45.54;100395.97;6128123;23;20008;-48
2022/08/15 07:08:34;;;;;;;13.90;4.70;;;;;;;26.58;45.91;100382.81;6130549;23;20013;-54
2022/08/15 07:11:15;;;;;;;9.63;4.88;;;;;;;26.59;46.05;100390.72;6136971;23;20012;-51
2022/08/15 07:14:06;;;;;;;11.25;5.30;;;;;;;26.40;46.96;100402.63;6129300;23;20020;-52
2022/08/15 07:17:02;;;;;;;11.73;5.78;;;;;;;26.19;47.90;100400.22;6129130;23;20009;-54
2022/08/15 07:19:27;;;;;;;12.07;5.00;;;;;;;26.36;47.04;100396.59;6107622;23;20465;-50
2022/08/15 07:21:53;;;;;;;10.18;5.38;;;;;;;26.24;47.66;100406.19;6105231;23;20088;-55
2022/08/15 07:24:18;;;;;;;8.32;4.95;;;;;;;26.27;47.56;100398.94;6133675;23;20013;-52
2022/08/15 07:26:52;;;;;;;8.60;5.10;;;;;;;26.14;48.26;100406.78;6105887;23;20715;-54
2022/08/15 07:29:32;;;;;;;;;;;;;;;26.17;48.01;100398.59;6140857;23;20009;-57
2022/08/15 07:32:09;;;;;;;13.20;5.47;;;;;;;26.36;47.23;100396.59;6108248;23;19912;-55
2022/08/15 07:34:37;;;;;;;9.32;5.68;;;;;;;26.20;48.01;100406.44;6126265;23;20025;-53
2022/08/15 07:37:06;;;;;;;10.75;5.50;;;;;;;26.19;48.37;100404.72;6131870;23;20080;-49
2022/08/15 07:39:45;;;;;;;10.60;5.57;;;;;;;26.19;48.25;100396.69;6106980;23;20875;-53
2022/08/15 07:42:14;;;;;;;8.30;5.10;;;;;;;26.40;48.29;100382.09;6137640;23;20012;-52
2022/08/15 07:44:49;;;;;;;10.88;5.97;;;;;;;26.49;48.57;100376.19;6126920;23;20009;-53
2022/08/15 07:47:26;;;;;;;9.05;5.13;;;;;;;26.64;48.46;100375.28;6109035;23;20012;-52
2022/08/15 07:50:04;;;;;;;9.30;5.30;;;;;;;26.45;48.57;100380.00;6106855;23;20504;-52
2022/08/15 07:52:31;;;;;;;9.85;5.22;;;;;;;26.40;48.44;100379.44;6095377;23;20348;-55
2022/08/15 07:55:11;;;;;;;12.23;5.53;;;;;;;26.70;48.39;100383.88;6103928;23;20347;-52
2022/08/15 07:57:41;;;;;;;11.15;5.13;;;;;;;26.71;48.38;100377.59;6139426;23;20005;-54
2022/08/15 08:00:28;;;;;;;11.65;5.13;;;;;;;26.72;48.00;100368.56;6113103;23;20436;-52
2022/08/15 08:03:07;;;;;;;8.90;5.68;;;;;;;26.71;48.44;100369.56;6124257;23;20394;-53
2022/08/15 08:05:48;;;;;;;9.35;5.70;;;;;;;26.58;49.99;100372.97;6135294;23;20445;-50
2022/08/15 08:08:16;;;;;;;8.75;5.70;;;;;;;26.50;51.70;100377.91;6133769;23;20617;-54
2022/08/15 08:11:01;;;;;;;8.65;6.07;;;;;;;26.00;53.64;100388.03;6137432;23;20039;-52
2022/08/15 08:13:50;;;;;;;9.85;5.43;;;;;;;26.27;53.26;100381.13;6096885;23;20397;-50
2022/08/15 08:16:45;;;;;;;8.25;5.80;;;;;;;26.24;53.86;100379.47;6111184;23;20017;-53
2022/08/15 08:19:29;;;;;;;10.48;5.70;;;;;;;26.27;53.26;100378.44;6124517;23;20955;-50
2022/08/15 08:22:04;;;;;;;9.40;6.00;;;;;;;26.23;51.97;100388.44;6127358;23;20024;-52
2022/08/15 08:24:59;;;;;;;9.25;5.82;;;;;;;26.33;51.40;100386.09;6097942;23;20454;-52
2022/08/15 08:27:44;;;;;;;9.15;5.78;;;;;;;26.05;51.64;100401.97;6090731;23;20426;-56
2022/08/15 08:30:16;;;;;;;8.07;5.68;;;;;;;26.21;51.53;100392.13;6132386;23;20012;-55
2022/08/15 08:32:53;;;;;;;9.27;6.13;;;;;;;26.33;50.53;100399.47;6139797;23;20021;-51
2022/08/15 08:35:54;;;;;;;7.82;5.80;;;;;;;26.34;49.99;100406.53;6123030;23;20048;-53
2022/08/15 08:38:43;;;;;;;9.48;6.03;;;;;;;26.44;49.88;100397.00;6108075;23;20084;-48
2022/08/15 08:41:40;;;;;;;11.23;5.78;;;;;;;26.42;50.16;100400.69;6130392;23;20005;-53
2022/08/15 08:44:18;;;;;;;10.32;6.15;;;;;;;26.30;51.30;100406.78;6127650;23;20017;-51
2022/08/15 08:46:49;;;;;;;16.45;6.75;;;;;;;26.65;49.94;100411.75;6123135;23;20430;-51
2022/08/15 08:49:43;;;;;;;13.43;6.60;;;;;;;26.56;50.57;100414.13;6107715;23;20356;-48
2022/08/15 08:52:45;;;;;;;15.48;6.47;;;;;;;26.32;51.86;100416.44;6129717;23;20013;-53
2022/08/15 08:55:16;;;;;;;11.00;7.70;;;;;;;26.46;51.02;100416.50;6080861;23;20655;-48
2022/08/15 08:58:08;;;;;;;11.52;7.35;;;;;;;26.43;51.58;100421.13;6124526;23;20070;-49
2022/08/15 09:01:08;;;;;;;15.35;8.13;;;;;;;26.32;52.05;100432.47;6114463;23;20105;-50
2022/08/15 09:03:42;;;;;;;17.50;8.80;;;;;;;26.28;52.15;100427.41;6125551;23;20020;-51
2022/08/15 09:06:12;;;;;;;12.00;8.43;;;;;;;26.63;51.55;100428.84;6109437;23;20017;-49
2022/08/15 09:08:51;;;;;;;13.25;9.18;;;;;;;26.53;51.62;100428.50;6109905;23;20008;-53
2022/08/15 09:11:36;;;;;;;14.70;8.75;;;;;;;26.72;51.80;100436.28;6130034;23;20450;-53
2022/08/15 09:14:36;;;;;;;13.70;9.77;;;;;;;26.89;51.47;100433.53;6124800;23;20321;-51
2022/08/15 09:17:11;;;;;;;18.13;10.35;;;;;;;26.98;51.17;100418.69;6104535;23;20349;-53
2022/08/15 09:19:56;;;;;;;17.50;10.25;;;;;;;27.11;51.69;100434.84;6133124;23;20013;-49
2022/08/15 09:22:24;;;;;;;18.13;10.52;;;;;;;27.31;51.14;100432.66;6103512;23;20387;-49
2022/08/15 09:24:49;;;;;;;16.88;9.45;;;;;;;27.81;49.43;100432.13;6111810;23;20005;-52
2022/08/15 09:27:14;;;;;;;12.00;8.80;;;;;;;28.33;48.71;100425.19;6137188;23;20040;-54
2022/08/15 09:29:46;;;;;;;17.40;9.60;;;;;;;28.61;48.57;100425.88;6120971;23;20028;-54
2022/08/15 09:32:27;;;;;;;16.25;9.57;;;;;;;29.05;47.19;100428.22;6127639;23;20009;-48
2022/08/15 09:35:20;;;;;;;14.73;8.77;;;;;;;29.20;46.48;100425.41;6130430;23;20603;-49
2022/08/15 09:38:10;;;;;;;16.15;10.10;;;;;;;28.58;47.41;100434.16;6123399;23;20013;-51
2022/08/15 09:40:57;;;;;;;18.25;10.75;;;;;;;28.76;47.04;100431.19;6138081;23;20088;-52
2022/08/15 09:43:42;;;;;;;14.43;10.55;;;;;;;28.81;46.86;100435.28;6099207;23;20245;-50
2022/08/15 09:46:13;;;;;;;13.32;10.00;;;;;;;29.22;45.47;100429.69;6133838;23;20012;-49
2022/08/15 09:49:05;;;;;;;13.05;10.13;;;;;;;29.46;45.29;100432.47;6131939;23;20013;-52
2022/08/15 09:51:57;;;;;;;16.38;10.90;;;;;;;28.95;46.88;100428.97;6136645;23;20262;-52
2022/08/15 09:54:26;;;;;;;16.42;10.48;;;;;;;28.90;46.86;100436.47;6079986;23;20009;-50
2022/08/15 09:57:32;;;;;;;15.00;9.73;;;;;;;29.22;45.67;100432.38;6095796;23;20445;-49
2022/08/15 10:00:06;;;;;;;14.38;10.30;;;;;;;28.99;47.43;100431.31;6106403;23;20084;-53
2022/08/15 10:02:32;;;;;;;13.95;10.80;;;;;;;28.88;46.85;100431.22;6127276;23;20025;-51
2022/08/15 10:04:59;;;;;;;12.40;9.23;;;;;;;29.12;44.77;100439.38;6126149;23;20020;-50
2022/08/15 10:08:00;;;;;;;12.57;9.40;;;;;;;29.24;43.65;100434.97;6103684;23;20009;-49
2022/08/15 10:10:32;;;;;;;15.07;8.75;;;;;;;29.28;43.46;100444.50;6108555;23;20104;-50
2022/08/15 10:13:07;;;;;;;15.40;8.93;;;;;;;29.05;43.76;100435.41;6132706;23;20016;-51
2022/08/15 10:15:46;;;;;;;14.10;8.27;;;;;;;29.32;43.18;100437.97;6121519;23;20067;-52
2022/08/15 10:18:26;;;;;;;13.90;8.70;;;;;;;28.97;43.53;100443.97;6120327;23;20001;-52
2022/08/15 10:21:02;;;;;;;10.18;8.20;;;;;;;29.15;42.86;100443.69;6117671;23;20013;-51
2022/08/15 10:23:37;;;;;;;15.70;9.25;;;;;;;29.19;43.43;100439.81;6105811;23;20111;-51
2022/08/15 10:26:24;;;;;;;16.20;10.65;;;;;;;28.89;45.37;100449.03;6134117;23;20124;-49
2022/08/15 10:29:04;;;;;;;15.23;11.30;;;;;;;29.28;44.35;100445.38;6137673;23;20147;-51
2022/08/15 10:31:40;;;;;;;14.45;9.18;;;;;;;29.28;45.45;100445.38;6124234;23;20306;-52
2022/08/15 10:34:17;;;;;;;16.42;10.05;;;;;;;29.50;44.43;100443.88;6134408;23;20632;-51
2022/08/15 10:37:05;;;;;;;13.32;10.13;;;;;;;29.48;44.91;100440.44;6140871;23;20008;-53
2022/08/15 10:40:12;;;;;;;14.98;10.30;;;;;;;30.00;43.97;100457.22;6124716;23;20078;-49
2022/08/15 10:43:02;;;;;;;11.30;8.15;;;;;;;30.33;42.05;100443.06;6085001;23;20008;-52
2022/08/15 10:45:59;;;;;;;16.83;10.50;;;;;;;30.55;42.17;100453.09;6122585;23;20083;-51
2022/08/15 10:48:49;;;;;;;13.27;8.18;;;;;;;30.58;42.46;100452.84;6136491;23;20337;-52
2022/08/15 10:51:27;;;;;;;12.52;9.77;;;;;;;30.27;43.76;100440.84;6103126;23;20016;-51
2022/08/15 10:54:09;;;;;;;12.05;8.95;;;;;;;30.38;42.81;100442.69;6113411;23;20013;-52
2022/08/15 10:56:38;;;;;;;14.48;9.30;;;;;;;30.39;42.61;100439.91;6130538;23;20024;-49
2022/08/15 10:59:13;;;;;;;13.35;8.70;;;;;;;31.09;42.13;100436.38;6120394;23;20882;-52
2022/08/15 11:01:40;;;;;;;12.85;9.00;;;;;;;31.56;41.05;100441.50;6109484;23;20005;-52
2022/08/15 11:04:09;;;;;;;12.50;8.57;;;;;;;31.69;40.28;100444.09;6126738;23;20107;-51
2022/08/15 11:06:45;;;;;;;17.83;9.55;;;;;;;31.27;41.47;100445.69;6110009;23;20020;-51
2022/08/15 11:09:17;;;;;;;19.02;9.18;;;;;;;31.18;40.89;100444.56;6153047;23;20009;-52
2022/08/15 11:11:54;;;;;;;14.18;8.55;;;;;;;31.10;41.26;100443.47;6139736;23;20016;-51
2022/08/15 11:14:27;;;;;;;11.77;8.43;;;;;;;31.23;40.54;100447.75;6151893;23;20429;-52
2022/08/15 11:16:54;;;;;;;;;;;;;;;31.20;40.63;100448.00;6142497;23;20020;-51
2022/08/15 11:19:45;;;;;;;13.82;9.95;;;;;;;30.68;41.94;100447.63;6135197;23;19918;-53
2022/08/15 11:22:19;;;;;;;13.68;8.98;;;;;;;30.68;42.65;100448.47;6126633;23;20005;-52
2022/08/15 11:24:54;;;;;;;;;;;;;;;30.49;43.71;100459.81;6133645;23;20063;-50
2022/08/15 11:27:24;;;;;;;12.43;9.00;;;;;;;30.57;43.17;100454.69;6138795;23;19923;-48
2022/08/15 11:29:56;;;;;;;14.30;10.10;;;;;;;30.10;43.78;100458.25;6124232;23;20009;-53
2022/08/15 11:32:38;;;;;;;16.50;10.00;;;;;;;30.40;43.19;100463.16;6138449;23;20016;-48
2022/08/15 11:35:19;;;;;;;15.20;9.48;;;;;;;30.09;43.77;100467.28;6102271;23;20353;-52
2022/08/15 11:37:45;;;;;;;14.10;10.07;;;;;;;29.77;44.69;100464.22;6109566;23;20441;-48
2022/08/15 11:40:37;;;;;;;14.73;10.20;;;;;;;29.84;44.45;100464.63;6099395;23;20063;-53
2022/08/15 11:43:05;;;;;;;15.60;9.70;;;;;;;30.25;43.65;100462.44;6134922;23;20012;-54
2022/08/15 11:46:02;;;;;;;14.10;10.95;;;;;;;29.91;45.11;100465.03;6131529;23;20089;-53
2022/08/15 11:48:33;;;;;;;15.02;9.70;;;;;;;30.14;44.15;100475.84;6108960;23;20005;-53
2022/08/15 11:51:08;;;;;;;15.73;10.48;;;;;;;30.07;44.43;100473.75;6140304;23;20036;-55
2022/08/15 11:53:40;;;;;;;12.77;8.75;;;;;;;30.06;45.46;100483.66;6130376;23;20071;-50
2022/08/15 11:56:07;;;;;;;13.80;8.73;;;;;;;30.19;44.59;100483.59;6135392;23;20049;-52
2022/08/15 11:58:36;;;;;;;13.90;9.10;;;;;;;30.09;43.93;100488.78;6104472;23;20013;-50